Time;durP1;ratioP1;P1;durP2;ratioP2;P2;SDS_P1;SDS_P2;PMS_P1;PMS_P2;Temp;Humidity;BMP_temperature;BMP_pressure;BME280_temperature;BME280_humidity;BME280_pressure;Samples;Min_cycle;Max_cycle;Signal;HPM_P1;HPM_P2
2021/09/14 00:09:43;;;;;;;0.30;0.20;;;24.70;99.90;;;;;;21027870;28;20191;-71
2021/09/14 00:19:48;;;;;;;0.35;0.35;;;24.40;99.90;;;;;;21029267;28;20799;-70
2021/09/14 00:29:51;;;;;;;1.85;0.90;;;24.20;99.90;;;;;;21027365;28;20649;-72
2021/09/14 00:39:56;;;;;;;0.22;0.17;;;24.00;99.90;;;;;;21027936;28;20710;-72
2021/09/14 00:50:01;;;;;;;0.55;0.55;;;23.80;99.90;;;;;;21026117;28;20211;-72
2021/09/14 01:00:08;;;;;;;0.80;0.35;;;23.70;99.90;;;;;;21028153;28;20241;-72
2021/09/14 01:10:13;;;;;;;0.40;0.28;;;23.60;99.90;;;;;;21024198;28;20203;-72
2021/09/14 01:20:18;;;;;;;0.20;0.08;;;23.50;99.90;;;;;;21025138;28;20227;-72
2021/09/14 01:30:23;;;;;;;0.50;0.40;;;23.60;99.90;;;;;;21024307;28;21077;-72
2021/09/14 01:40:27;;;;;;;1.48;0.57;;;23.50;99.90;;;;;;21022663;28;20234;-70
2021/09/14 01:50:32;;;;;;;0.98;0.57;;;23.50;99.90;;;;;;21025650;28;20705;-70
2021/09/14 02:00:39;;;;;;;0.50;0.50;;;23.40;99.90;;;;;;21031754;28;20257;-70
2021/09/14 03:02:29;;;;;;;2.47;0.65;;;23.90;99.90;;;;;;21033761;28;20228;-70
2021/09/14 03:12:35;;;;;;;0.20;0.10;;;24.10;99.90;;;;;;21034516;28;20681;-70
2021/09/14 03:22:38;;;;;;;0.28;0.15;;;24.20;99.90;;;;;;21030655;28;20239;-71
2021/09/14 03:32:43;;;;;;;0.65;0.63;;;24.40;99.90;;;;;;21033888;28;20202;-71
2021/09/14 03:42:47;;;;;;;1.88;0.40;;;24.60;99.90;;;;;;21030658;28;20227;-71
2021/09/14 03:52:52;;;;;;;1.75;0.98;;;24.70;99.90;;;;;;21031408;28;20192;-71
2021/09/14 04:02:59;;;;;;;0.60;0.47;;;24.60;99.90;;;;;;21028101;28;20455;-70
2021/09/14 04:13:04;;;;;;;0.57;0.57;;;24.40;99.90;;;;;;21028011;28;20199;-69
2021/09/14 04:23:08;;;;;;;0.63;0.63;;;24.40;99.90;;;;;;21027091;28;20683;-71
2021/09/14 04:33:13;;;;;;;1.90;1.40;;;24.50;99.90;;;;;;21028212;28;20192;-70
2021/09/14 04:43:16;;;;;;;1.38;1.20;;;24.40;99.90;;;;;;21025446;28;20687;-70
2021/09/14 04:53:21;;;;;;;1.15;0.82;;;24.20;99.90;;;;;;21026291;28;20200;-70
2021/09/14 05:03:26;;;;;;;1.20;0.90;;;24.00;99.90;;;;;;21023749;28;20316;-72
2021/09/14 05:13:31;;;;;;;1.25;1.15;;;24.00;99.90;;;;;;21025150;28;20657;-70
2021/09/14 05:23:35;;;;;;;0.77;0.47;;;24.00;99.90;;;;;;21024665;28;20228;-72
2021/09/14 05:33:41;;;;;;;3.20;1.17;;;24.10;99.90;;;;;;21028216;28;20204;-72
2021/09/14 05:43:44;;;;;;;0.73;0.47;;;24.20;99.90;;;;;;21038739;28;20223;-72
2021/09/14 05:53:50;;;;;;;4.75;1.73;;;24.20;99.90;;;;;;21015084;28;20199;-75
2021/09/14 06:03:53;;;;;;;3.53;1.05;;;24.60;99.90;;;;;;21030956;28;20589;-70
2021/09/14 06:13:58;;;;;;;0.73;0.60;;;24.60;99.90;;;;;;21027679;28;20196;-71
2021/09/14 06:24:02;;;;;;;0.75;0.75;;;24.60;99.90;;;;;;21034338;28;20918;-70
2021/09/14 06:34:07;;;;;;;1.45;0.93;;;25.10;99.90;;;;;;21029653;28;20553;-70
2021/09/14 06:44:11;;;;;;;0.60;0.60;;;25.00;99.90;;;;;;21029971;28;20491;-72
2021/09/14 06:54:16;;;;;;;1.42;1.00;;;25.40;99.90;;;;;;21026545;28;20196;-71
2021/09/14 07:04:20;;;;;;;0.95;0.57;;;25.60;99.90;;;;;;21009002;28;20741;-69
2021/09/14 07:14:25;;;;;;;1.00;0.70;;;25.90;99.90;;;;;;21006146;28;21147;-70
2021/09/14 07:24:29;;;;;;;1.00;0.93;;;26.30;99.90;;;;;;21026461;28;20445;-69
2021/09/14 07:34:37;;;;;;;0.57;0.57;;;26.40;99.90;;;;;;21009439;28;20192;-70
2021/09/14 07:44:41;;;;;;;0.88;0.52;;;26.60;99.90;;;;;;21026346;28;20257;-70
2021/09/14 07:54:47;;;;;;;0.40;0.40;;;26.80;99.90;;;;;;20934750;28;20197;-71
2021/09/14 08:04:51;;;;;;;2.55;1.05;;;27.10;99.90;;;;;;20942425;28;20233;-69
2021/09/14 08:14:58;;;;;;;1.33;1.25;;;27.00;99.90;;;;;;20941766;28;20560;-69
2021/09/14 08:25:05;;;;;;;0.80;0.80;;;27.40;99.90;;;;;;20997704;28;20220;-70
2021/09/14 08:35:11;;;;;;;0.43;0.40;;;27.40;99.90;;;;;;21023570;28;20664;-68
2021/09/14 08:45:15;;;;;;;3.20;1.47;;;27.40;99.90;;;;;;21020557;28;20438;-69
2021/09/14 08:55:22;;;;;;;0.30;0.30;;;27.90;99.90;;;;;;21022569;28;20214;-70
2021/09/14 09:05:34;;;;;;;0.40;0.40;;;28.50;99.90;;;;;;21025422;28;20234;-68
2021/09/14 09:15:40;;;;;;;7.38;1.80;;;28.10;99.90;;;;;;21038179;28;20187;-68
2021/09/14 09:25:43;;;;;;;1.38;0.22;;;28.20;99.90;;;;;;21037608;28;20220;-73
2021/09/14 09:35:48;;;;;;;1.00;0.85;;;28.30;99.90;;;;;;21036077;28;20184;-71
2021/09/14 09:45:52;;;;;;;0.40;0.32;;;28.20;99.90;;;;;;21034901;28;20216;-69
2021/09/14 09:55:58;;;;;;;2.78;0.80;;;28.60;99.90;;;;;;21035560;28;20206;-71
2021/09/14 10:06:08;;;;;;;0.30;0.30;;;28.90;99.90;;;;;;21019180;28;20708;-72
2021/09/14 10:16:23;;;;;;;0.47;0.45;;;29.00;99.90;;;;;;21035833;28;20187;-69
2021/09/14 10:26:34;;;;;;;0.88;0.57;;;29.30;99.90;;;;;;21034336;28;20232;-67
2021/09/14 10:36:42;;;;;;;0.65;0.65;;;29.10;99.90;;;;;;21028634;28;20280;-71
2021/09/14 10:46:46;;;;;;;1.90;1.02;;;29.10;99.90;;;;;;21014180;28;20307;-72
2021/09/14 10:56:52;;;;;;;1.55;0.85;;;29.60;99.90;;;;;;21030749;28;20350;-74
2021/09/14 11:06:57;;;;;;;1.10;1.00;;;30.30;99.90;;;;;;21027534;28;20220;-70
2021/09/14 11:17:02;;;;;;;0.52;0.25;;;30.10;99.90;;;;;;21029192;28;20196;-75
2021/09/14 11:27:06;;;;;;;0.20;0.10;;;29.90;99.90;;;;;;21026805;28;20215;-71
2021/09/14 11:37:11;;;;;;;0.40;0.38;;;30.30;99.90;;;;;;21009343;28;20196;-74
2021/09/14 11:47:15;;;;;;;0.90;0.70;;;31.00;99.90;;;;;;21007155;28;20219;-73
2021/09/14 11:57:20;;;;;;;1.60;0.88;;;31.40;99.90;;;;;;21023795;28;20916;-76
2021/09/14 12:07:24;;;;;;;0.30;0.30;;;32.20;99.90;;;;;;21020399;28;20227;-73
2021/09/14 12:17:31;;;;;;;0.50;0.50;;;33.00;99.90;;;;;;21024052;28;20298;-73
2021/09/14 12:27:36;;;;;;;1.98;1.00;;;33.10;99.90;;;;;;21021534;28;20649;-72
2021/09/14 12:37:41;;;;;;;0.77;0.75;;;33.30;99.90;;;;;;21016877;28;20188;-73
2021/09/14 12:47:45;;;;;;;1.08;0.35;;;33.80;99.90;;;;;;21023132;28;20346;-74
2021/09/14 12:57:50;;;;;;;0.82;0.82;;;33.80;99.90;;;;;;21008927;28;20337;-72
2021/09/14 13:07:54;;;;;;;0.57;0.40;;;32.10;99.90;;;;;;21023011;28;20224;-74
2021/09/14 13:18:06;;;;;;;1.38;0.68;;;31.00;99.90;;;;;;21004264;28;20255;-74
2021/09/14 13:28:10;;;;;;;0.57;0.57;;;31.10;99.90;;;;;;21025361;28;20262;-74
2021/09/14 13:38:15;;;;;;;1.30;0.88;;;33.00;99.90;;;;;;21006911;28;20724;-75
2021/09/14 13:48:23;;;;;;;0.45;0.45;;;33.10;99.90;;;;;;21023171;28;20223;-73
2021/09/14 13:58:29;;;;;;;0.43;0.30;;;32.00;99.90;;;;;;21034684;28;20778;-74
2021/09/14 14:08:33;;;;;;;0.70;0.68;;;30.60;99.90;;;;;;21034050;28;20227;-72
2021/09/14 14:18:38;;;;;;;0.30;0.22;;;32.20;99.90;;;;;;21034983;28;20208;-74
2021/09/14 14:28:42;;;;;;;5.88;0.98;;;33.50;99.90;;;;;;21032850;28;20557;-73
2021/09/14 14:38:47;;;;;;;2.78;1.15;;;33.30;99.90;;;;;;21033996;28;20196;-69
2021/09/14 14:48:51;;;;;;;1.20;0.85;;;33.60;99.90;;;;;;21015146;28;20322;-71
2021/09/14 14:58:57;;;;;;;3.75;0.43;;;33.50;99.90;;;;;;21031950;28;20223;-75
2021/09/14 15:09:01;;;;;;;1.65;0.60;;;32.90;99.90;;;;;;20944908;28;20236;-72
2021/09/14 15:19:07;;;;;;;0.50;0.50;;;30.90;99.90;;;;;;20946844;28;20329;-74
2021/09/14 15:29:13;;;;;;;0.45;0.45;;;29.90;99.90;;;;;;20945314;28;20229;-71
2021/09/14 15:39:18;;;;;;;0.32;0.32;;;29.40;99.90;;;;;;20944448;28;20207;-72
2021/09/14 15:49:21;;;;;;;0.45;0.43;;;29.20;99.90;;;;;;20942833;28;20813;-71
2021/09/14 15:59:27;;;;;;;0.50;0.28;;;28.70;99.90;;;;;;20940872;28;20192;-72
2021/09/14 16:09:30;;;;;;;1.30;1.20;;;28.50;99.90;;;;;;21023932;28;20688;-71
2021/09/14 16:19:38;;;;;;;4.60;4.30;;;28.60;99.90;;;;;;21005695;28;20212;-72
2021/09/14 16:29:42;;;;;;;0.20;0.10;;;28.30;99.90;;;;;;21023084;28;20216;-71
2021/09/14 16:39:47;;;;;;;0.60;0.57;;;28.30;99.90;;;;;;21002873;28;20229;-73
2021/09/14 16:49:53;;;;;;;1.23;0.55;;;28.00;99.90;;;;;;21023813;28;20239;-72
2021/09/14 16:59:59;;;;;;;0.45;0.43;;;28.00;99.90;;;;;;21020963;28;20210;-72
2021/09/14 17:10:03;;;;;;;4.35;0.47;;;28.10;99.90;;;;;;21021925;28;20654;-71
2021/09/14 17:20:11;;;;;;;0.57;0.30;;;27.90;99.90;;;;;;21021264;28;20218;-69
2021/09/14 17:30:15;;;;;;;0.50;0.47;;;27.70;99.90;;;;;;21026556;28;20255;-71
2021/09/14 17:40:21;;;;;;;0.28;0.22;;;27.50;99.90;;;;;;21038114;28;20195;-71
2021/09/14 17:50:27;;;;;;;0.73;0.32;;;27.40;99.90;;;;;;21017895;28;20269;-71
2021/09/14 18:00:32;;;;;;;0.20;0.15;;;27.20;99.90;;;;;;21033648;28;21076;-70
2021/09/14 18:10:38;;;;;;;2.28;0.40;;;27.00;99.90;;;;;;21034739;28;20188;-71
2021/09/14 18:20:43;;;;;;;0.20;0.13;;;26.90;99.90;;;;;;21034086;28;20293;-72
2021/09/14 18:30:47;;;;;;;0.22;0.20;;;27.10;99.90;;;;;;21033311;28;20572;-71
2021/09/14 18:40:53;;;;;;;1.20;0.85;;;26.80;99.90;;;;;;21033292;28;20204;-70
2021/09/14 18:50:57;;;;;;;0.20;0.20;;;26.60;99.90;;;;;;21034269;28;20551;-71
2021/09/14 19:01:02;;;;;;;0.52;0.45;;;26.50;99.90;;;;;;21030804;28;20235;-72
2021/09/14 19:11:06;;;;;;;0.73;0.38;;;26.60;99.90;;;;;;21030926;28;20200;-71
2021/09/14 19:21:11;;;;;;;0.35;0.30;;;26.60;99.90;;;;;;21027615;28;20208;-71
2021/09/14 19:31:15;;;;;;;2.28;0.55;;;26.40;99.90;;;;;;21031050;28;20200;-72
2021/09/14 19:41:21;;;;;;;0.40;0.28;;;26.30;99.90;;;;;;21029046;28;20219;-72
2021/09/14 19:51:25;;;;;;;0.80;0.65;;;26.40;99.90;;;;;;21028431;28;20598;-72
2021/09/14 20:01:30;;;;;;;0.47;0.47;;;26.30;99.90;;;;;;21027804;28;20620;-69
2021/09/14 20:11:33;;;;;;;0.20;0.00;;;26.20;99.90;;;;;;21027673;28;20203;-72
2021/09/14 20:21:38;;;;;;;0.32;0.28;;;26.10;99.90;;;;;;21007436;28;20222;-71
2021/09/14 20:31:42;;;;;;;0.35;0.30;;;26.00;99.90;;;;;;21025559;28;20192;-71
2021/09/14 20:41:47;;;;;;;0.55;0.40;;;25.80;99.90;;;;;;21005440;28;20632;-71
2021/09/14 20:51:53;;;;;;;0.20;0.10;;;25.60;99.90;;;;;;21025086;28;20253;-70
2021/09/14 21:02:01;;;;;;;0.50;0.50;;;25.60;99.90;;;;;;21006569;28;20230;-72
2021/09/14 21:12:05;;;;;;;1.15;0.75;;;25.70;99.90;;;;;;21022300;28;20199;-69
2021/09/14 21:22:11;;;;;;;0.85;0.73;;;25.70;99.90;;;;;;21040531;28;20224;-71
2021/09/14 21:32:15;;;;;;;0.98;0.32;;;25.60;99.90;;;;;;21038901;28;20203;-70
2021/09/14 21:42:21;;;;;;;0.20;0.10;;;25.70;99.90;;;;;;21039984;28;20228;-71
2021/09/14 21:52:25;;;;;;;0.20;0.10;;;25.60;99.90;;;;;;21038483;28;20657;-72
2021/09/14 22:02:30;;;;;;;0.45;0.45;;;25.60;99.90;;;;;;21038553;28;20778;-72
2021/09/14 22:12:34;;;;;;;1.00;0.75;;;25.50;99.90;;;;;;21036849;28;20224;-71
2021/09/14 22:22:41;;;;;;;1.15;0.47;;;25.50;99.90;;;;;;21035713;28;20277;-71
2021/09/14 22:32:44;;;;;;;0.20;0.20;;;25.30;99.90;;;;;;21034357;28;20211;-72
2021/09/14 22:42:49;;;;;;;0.40;0.30;;;25.20;99.90;;;;;;21034955;28;20228;-72
2021/09/14 22:52:54;;;;;;;0.65;0.63;;;25.20;99.90;;;;;;21034574;28;20188;-71
2021/09/14 23:02:59;;;;;;;0.85;0.20;;;25.20;99.90;;;;;;21031854;28;20228;-71
2021/09/14 23:13:02;;;;;;;0.77;0.38;;;25.20;99.90;;;;;;21032824;28;20381;-72
2021/09/14 23:23:07;;;;;;;0.20;0.10;;;25.30;99.90;;;;;;21012635;28;20705;-71
2021/09/14 23:33:11;;;;;;;0.65;0.65;;;25.20;99.90;;;;;;21032727;28;20486;-71
2021/09/14 23:43:16;;;;;;;0.47;0.40;;;25.30;99.90;;;;;;21029350;28;20227;-72
2021/09/14 23:53:20;;;;;;;0.30;0.10;;;25.20;99.90;;;;;;21030717;28;20205;-71
